Time;durP1;ratioP1;P1;durP2;ratioP2;P2;SDS_P1;SDS_P2;PMS_P1;PMS_P2;Temp;Humidity;BMP_temperature;BMP_pressure;BME280_temperature;BME280_humidity;BME280_pressure;Samples;Min_cycle;Max_cycle;Signal;HPM_P1;HPM_P2
2023/04/05 00:01:34;;;;;;;12.00;8.20;;;;;;;17.39;39.19;99927.79;108067;1253;60571;-67
2023/04/05 00:04:03;;;;;;;11.50;8.40;;;;;;;17.66;38.76;99935.83;108144;1253;75088;-66
2023/04/05 00:06:33;;;;;;;11.40;7.80;;;;;;;18.02;38.11;99930.89;108220;1254;71643;-66
2023/04/05 00:09:03;;;;;;;13.10;8.60;;;;;;;17.67;38.72;99932.36;108219;1256;73994;-66
2023/04/05 00:11:32;;;;;;;10.90;7.50;;;;;;;17.78;38.65;99928.98;108278;1254;62420;-66
2023/04/05 00:14:01;;;;;;;12.90;8.30;;;;;;;17.74;38.56;99926.05;108230;1254;61335;-66
2023/04/05 00:16:30;;;;;;;10.80;7.70;;;;;;;17.84;38.44;99921.85;108308;1255;74157;-65
2023/04/05 00:19:00;;;;;;;11.00;7.60;;;;;;;18.00;38.19;99918.06;108257;1254;71310;-65
2023/04/05 00:21:30;;;;;;;10.60;7.00;;;;;;;18.02;38.08;99911.52;108242;1254;73869;-67
2023/04/05 00:23:58;;;;;;;11.80;8.00;;;;;;;17.63;38.70;99913.83;108188;1254;60984;-67
2023/04/05 00:26:27;;;;;;;10.20;6.90;;;;;;;17.67;38.72;99910.41;108192;1254;61395;-65
2023/04/05 00:28:58;;;;;;;12.00;7.40;;;;;;;17.72;38.57;99906.30;108193;1254;74252;-68
2023/04/05 00:31:28;;;;;;;9.80;7.50;;;;;;;17.55;38.89;99911.41;108228;1254;71010;-67
2023/04/05 00:33:56;;;;;;;11.50;7.70;;;;;;;17.57;38.77;99912.86;108229;1254;73389;-66
2023/04/05 00:36:25;;;;;;;11.40;7.40;;;;;;;17.35;38.97;99913.29;108177;1254;62441;-67
2023/04/05 00:38:54;;;;;;;13.10;8.10;;;;;;;17.50;38.88;99916.33;108167;1254;61233;-66
2023/04/05 00:41:22;;;;;;;11.40;7.90;;;;;;;17.49;38.97;99913.27;108196;1257;75114;-67
2023/04/05 00:43:50;;;;;;;9.20;6.80;;;;;;;17.61;38.72;99912.77;108093;1253;70648;-66
2023/04/05 00:46:20;;;;;;;8.90;6.70;;;;;;;17.88;38.32;99903.99;108194;1254;70794;-66
2023/04/05 00:48:49;;;;;;;11.10;7.60;;;;;;;17.72;38.57;99901.86;108224;1254;62140;-67
2023/04/05 00:51:19;;;;;;;9.30;6.30;;;;;;;17.52;38.89;99900.42;108234;1254;60845;-68
2023/04/05 00:53:51;;;;;;;9.50;7.00;;;;;;;17.36;39.07;99897.41;108259;1253;74264;-67
2023/04/05 00:56:20;;;;;;;10.60;7.00;;;;;;;17.10;39.42;99895.13;108076;1254;69582;-66
2023/04/05 00:58:50;;;;;;;8.60;6.40;;;;;;;17.14;39.42;99893.81;108298;1256;73857;-67
2023/04/05 01:01:21;;;;;;;10.80;7.30;;;;;;;17.00;39.62;99886.59;108341;1252;62203;-66
2023/04/05 01:03:53;;;;;;;10.60;6.90;;;;;;;16.89;39.84;99884.98;108398;1253;61088;-67
2023/04/05 01:06:26;;;;;;;10.90;7.00;;;;;;;16.89;39.82;99882.85;108182;1254;73183;-68
2023/04/05 01:09:10;;;;;;;7.40;5.70;;;;;;;16.93;39.80;99876.98;108176;1254;69868;-66
2023/04/05 01:11:39;;;;;;;8.00;6.50;;;;;;;16.97;39.82;99871.91;108345;1254;72428;-65
2023/04/05 01:14:07;;;;;;;10.10;6.80;;;;;;;17.09;39.69;99867.86;108122;1254;60791;-66
2023/04/05 01:16:35;;;;;;;10.60;7.10;;;;;;;17.31;39.33;99865.13;108170;1257;60289;-66
2023/04/05 01:19:04;;;;;;;8.40;6.20;;;;;;;17.68;38.61;99860.95;108280;1256;75040;-66
2023/04/05 01:21:38;;;;;;;9.70;6.50;;;;;;;17.62;38.61;99857.45;108037;1259;71583;-66
2023/04/05 01:24:13;;;;;;;9.40;6.10;;;;;;;17.38;39.01;99852.25;108263;1254;73853;-67
2023/04/05 01:27:04;;;;;;;8.10;6.30;;;;;;;17.34;39.11;99856.75;108108;1254;61080;-65
2023/04/05 01:29:52;;;;;;;7.20;5.60;;;;;;;17.68;38.60;99854.73;108241;1253;60328;-67
2023/04/05 01:32:41;;;;;;;9.20;6.50;;;;;;;17.70;38.51;99857.61;108183;1254;74574;-66
2023/04/05 01:35:37;;;;;;;8.80;5.80;;;;;;;17.46;38.87;99855.06;108146;1254;70685;-67
2023/04/05 01:38:06;;;;;;;7.70;5.20;;;;;;;17.44;38.90;99859.83;108303;1253;73671;-66
2023/04/05 01:40:35;;;;;;;7.00;5.00;;;;;;;17.42;38.93;99859.96;108343;1253;61323;-67
2023/04/05 01:43:16;;;;;;;8.50;5.50;;;;;;;17.47;38.98;99861.90;108126;1254;60423;-68
2023/04/05 01:45:45;;;;;;;6.20;5.00;;;;;;;17.37;39.04;99861.35;108336;1254;75092;-65
2023/04/05 01:48:13;;;;;;;8.10;5.70;;;;;;;17.33;39.34;99858.06;108289;1254;70602;-67
2023/04/05 01:50:41;;;;;;;7.40;5.20;;;;;;;17.47;39.03;99855.70;108210;1254;73646;-66
2023/04/05 01:53:10;;;;;;;6.20;4.80;;;;;;;17.41;39.06;99853.09;108051;1252;62166;-66
2023/04/05 01:58:10;;;;;;;8.40;4.90;;;;;;;12.88;47.97;99858.08;104945;1288;600945;-67
2023/04/05 02:00:38;;;;;;;6.80;5.00;;;;;;;14.39;44.82;99852.15;107287;1265;62443;-65
2023/04/05 02:03:07;;;;;;;6.40;5.20;;;;;;;14.84;44.00;99850.08;107376;1264;61320;-67
2023/04/05 02:05:36;;;;;;;7.10;4.90;;;;;;;15.05;43.65;99847.41;107316;1266;72347;-67
2023/04/05 02:08:05;;;;;;;7.70;5.40;;;;;;;15.22;43.34;99842.66;107379;1266;70811;-68
2023/04/05 02:10:33;;;;;;;6.30;5.10;;;;;;;15.23;43.24;99840.16;107320;1269;72964;-66
2023/04/05 02:13:01;;;;;;;7.00;5.00;;;;;;;15.10;43.61;99837.59;107193;1263;60236;-68
2023/04/05 02:15:31;;;;;;;7.40;5.10;;;;;;;15.21;43.44;99823.61;107487;1263;61601;-66
2023/04/05 02:18:00;;;;;;;8.50;5.50;;;;;;;15.48;42.91;99820.73;107763;1257;73112;-66
2023/04/05 02:20:29;;;;;;;6.60;4.80;;;;;;;15.59;42.75;99822.35;108034;1257;70231;-68
2023/04/05 02:22:59;;;;;;;11.50;5.40;;;;;;;15.71;42.52;99826.36;108015;1257;72876;-68
2023/04/05 02:25:29;;;;;;;7.00;4.50;;;;;;;15.79;42.33;99824.16;107989;1257;61737;-68
2023/04/05 02:27:59;;;;;;;7.40;5.10;;;;;;;15.83;42.34;99821.59;107975;1257;60568;-67
2023/04/05 02:30:27;;;;;;;7.90;5.50;;;;;;;15.85;42.39;99818.80;108032;1257;73975;-68
2023/04/05 02:32:56;;;;;;;6.40;4.90;;;;;;;16.04;42.11;99815.25;108037;1257;71349;-66
2023/04/05 02:35:31;;;;;;;7.60;4.80;;;;;;;16.06;41.91;99812.11;107977;1257;73572;-67
2023/04/05 02:38:00;;;;;;;5.40;4.10;;;;;;;15.81;42.35;99815.54;107999;1257;61449;-66
2023/04/05 02:40:29;;;;;;;7.40;5.30;;;;;;;15.74;42.50;99815.94;108023;1257;61311;-67
2023/04/05 02:42:57;;;;;;;7.50;5.20;;;;;;;15.93;42.26;99817.95;107983;1256;73539;-68
2023/04/05 02:45:26;;;;;;;8.10;5.30;;;;;;;15.91;42.31;99813.82;107973;1259;71013;-67
2023/04/05 02:47:56;;;;;;;7.60;5.00;;;;;;;15.91;42.41;99805.33;107892;1256;73708;-67
2023/04/05 02:50:25;;;;;;;6.90;5.10;;;;;;;16.08;41.85;99792.67;107881;1257;60442;-65
2023/04/05 02:52:55;;;;;;;6.40;4.70;;;;;;;16.06;41.97;99793.02;107643;1256;61547;-67
2023/04/05 02:55:23;;;;;;;7.60;4.90;;;;;;;16.07;41.99;99798.45;107874;1256;71864;-66
2023/04/05 02:57:52;;;;;;;6.60;4.80;;;;;;;16.18;41.80;99795.91;108125;1253;71278;-64
2023/04/05 03:00:32;;;;;;;6.40;4.70;;;;;;;16.45;41.37;99790.09;108178;1253;73762;-66
2023/04/05 03:03:01;;;;;;;8.20;5.90;;;;;;;16.58;41.10;99776.67;108084;1253;60700;-66
2023/04/05 03:05:30;;;;;;;6.50;4.90;;;;;;;16.61;40.98;99775.23;108231;1256;61404;-67
2023/04/05 03:08:01;;;;;;;9.40;5.70;;;;;;;16.52;41.03;99783.61;108144;1253;74068;-65
2023/04/05 03:10:34;;;;;;;;;;;;;;;16.45;41.25;99788.16;108210;1254;69913;-66
2023/04/05 03:13:10;;;;;;;7.60;5.10;;;;;;;16.39;41.38;99792.64;108131;1259;73020;-66
2023/04/05 03:15:40;;;;;;;8.50;5.10;;;;;;;16.41;41.31;99790.74;108199;1254;63619;-67
2023/04/05 03:18:10;;;;;;;8.20;5.30;;;;;;;16.53;41.07;99785.66;108080;1253;60379;-67
2023/04/05 03:20:40;;;;;;;7.00;5.00;;;;;;;16.56;41.08;99784.20;108272;1253;74480;-68
2023/04/05 03:23:15;;;;;;;6.50;4.80;;;;;;;16.74;40.87;99779.11;108264;1254;69640;-65
2023/04/05 03:25:44;;;;;;;6.90;4.80;;;;;;;16.93;40.63;99775.33;108259;1253;72902;-66
2023/04/05 03:28:17;;;;;;;6.60;4.50;;;;;;;16.75;40.72;99775.34;108269;1253;62219;-65
2023/04/05 03:30:49;;;;;;;6.10;4.20;;;;;;;16.68;40.92;99778.48;108292;1253;61706;-65
2023/04/05 03:33:19;;;;;;;5.90;4.30;;;;;;;16.82;40.71;99778.05;108270;1253;73305;-65
2023/04/05 03:35:50;;;;;;;;;;;;;;;16.92;40.53;99779.30;108241;1252;69267;-67
2023/04/05 03:38:20;;;;;;;6.20;4.30;;;;;;;17.04;40.30;99783.98;108280;1253;73998;-68
2023/04/05 03:41:24;;;;;;;6.00;4.40;;;;;;;16.93;40.49;99788.98;108172;1253;60980;-66
2023/04/05 03:43:53;;;;;;;7.00;4.30;;;;;;;17.00;40.49;99793.66;108335;1254;59692;-67
2023/04/05 03:46:22;;;;;;;7.30;4.90;;;;;;;17.07;40.39;99789.83;108296;1253;73077;-66
2023/04/05 03:48:51;;;;;;;5.50;4.40;;;;;;;16.97;40.55;99790.48;108094;1254;71249;-66
2023/04/05 03:51:20;;;;;;;7.20;4.70;;;;;;;17.06;40.43;99795.21;108138;1253;73893;-65
2023/04/05 03:53:50;;;;;;;6.10;4.50;;;;;;;17.15;40.27;99798.46;108250;1254;61320;-66
2023/04/05 03:56:19;;;;;;;5.80;4.10;;;;;;;17.13;40.24;99797.76;108301;1253;61293;-66
2023/04/05 03:58:49;;;;;;;6.30;4.50;;;;;;;17.27;39.99;99797.65;108052;1260;74209;-66
2023/04/05 04:01:19;;;;;;;5.50;4.10;;;;;;;17.27;39.93;99798.73;107986;1255;69533;-64
2023/04/05 04:03:48;;;;;;;5.40;4.20;;;;;;;17.53;39.52;99797.00;108308;1253;71988;-65
2023/04/05 04:06:17;;;;;;;5.50;4.40;;;;;;;17.54;39.48;99793.98;108086;1259;62484;-67
2023/04/05 04:08:49;;;;;;;5.30;4.20;;;;;;;17.56;39.43;99795.42;108318;1253;61368;-65
2023/04/05 04:11:17;;;;;;;5.80;4.10;;;;;;;17.47;39.56;99794.45;108257;1253;73559;-66
2023/04/05 04:13:47;;;;;;;7.20;4.50;;;;;;;17.28;39.77;99793.50;108228;1256;70962;-67
2023/04/05 04:16:27;;;;;;;5.60;4.10;;;;;;;17.05;40.12;99794.19;108065;1254;73224;-66
2023/04/05 04:19:21;;;;;;;6.30;4.30;;;;;;;16.75;40.67;99794.12;108047;1253;60485;-65
2023/04/05 04:22:02;;;;;;;4.90;4.00;;;;;;;16.68;40.78;99790.36;108286;1253;60995;-68
2023/04/05 04:25:10;;;;;;;5.90;4.30;;;;;;;16.79;40.71;99791.35;108130;1258;73010;-66
2023/04/05 04:27:57;;;;;;;7.80;3.90;;;;;;;16.70;40.83;99785.75;108254;1256;71630;-66
2023/04/05 04:30:50;;;;;;;5.70;4.30;;;;;;;16.81;40.74;99782.17;108250;1254;72322;-68
2023/04/05 04:33:54;;;;;;;5.70;3.90;;;;;;;17.06;40.37;99783.68;107642;1262;62203;-67
2023/04/05 04:36:59;;;;;;;5.70;4.10;;;;;;;17.17;40.24;99781.48;108134;1253;61469;-66
2023/04/05 04:39:38;;;;;;;5.30;4.00;;;;;;;17.31;40.02;99781.55;108266;1254;74293;-66
2023/04/05 04:42:37;;;;;;;5.30;3.70;;;;;;;17.32;39.90;99780.80;108145;1253;70551;-66
2023/04/05 04:45:10;;;;;;;4.50;3.60;;;;;;;17.23;40.00;99774.34;108279;1253;74258;-65
2023/04/05 04:47:56;;;;;;;5.30;4.20;;;;;;;17.47;39.62;99767.47;108221;1253;59584;-67
2023/04/05 04:50:48;;;;;;;5.40;3.90;;;;;;;17.23;40.07;99770.80;108088;1257;61663;-67
2023/04/05 04:53:17;;;;;;;5.40;3.50;;;;;;;17.30;39.95;99770.11;108279;1253;73292;-67
2023/04/05 04:55:49;;;;;;;4.50;3.60;;;;;;;17.22;40.09;99773.90;108276;1256;69280;-67
2023/04/05 04:58:18;;;;;;;4.30;3.50;;;;;;;17.19;40.10;99771.93;108281;1257;73872;-66
2023/04/05 05:00:53;;;;;;;4.80;4.00;;;;;;;17.33;39.98;99770.80;108085;1254;61458;-68
2023/04/05 05:03:23;;;;;;;4.90;3.80;;;;;;;17.42;39.79;99770.85;108232;1254;60171;-68
2023/04/05 05:05:52;;;;;;;5.30;3.10;;;;;;;17.58;39.59;99776.27;108147;1254;73920;-66
2023/04/05 05:08:24;;;;;;;4.20;3.20;;;;;;;17.39;39.82;99778.89;108317;1254;69405;-68
2023/04/05 05:10:52;;;;;;;4.50;3.20;;;;;;;17.38;39.85;99779.27;108337;1256;72541;-66
2023/04/05 05:13:21;;;;;;;4.40;3.20;;;;;;;17.59;39.62;99776.55;108286;1254;60896;-66
2023/04/05 05:15:49;;;;;;;4.50;3.40;;;;;;;17.59;39.62;99774.44;108255;1254;61501;-66
2023/04/05 05:18:17;;;;;;;5.40;3.70;;;;;;;17.55;39.65;99771.73;108253;1254;74294;-67
2023/04/05 05:20:49;;;;;;;4.70;3.30;;;;;;;17.48;39.84;99777.38;108270;1254;70767;-68
2023/04/05 05:23:17;;;;;;;4.00;3.10;;;;;;;17.53;39.80;99781.97;108256;1256;72362;-67
2023/04/05 05:25:46;;;;;;;4.50;3.50;;;;;;;17.56;39.65;99780.31;108338;1253;62003;-68
2023/04/05 05:28:15;;;;;;;4.90;2.90;;;;;;;17.45;40.02;99777.95;108204;1253;60572;-67
2023/04/05 05:30:44;;;;;;;4.30;3.30;;;;;;;17.54;39.80;99771.30;108241;1256;73179;-68
2023/04/05 05:33:14;;;;;;;3.70;2.90;;;;;;;17.60;39.81;99771.15;108245;1254;71564;-67
2023/04/05 05:35:43;;;;;;;4.20;3.10;;;;;;;17.64;39.74;99766.80;108231;1254;72704;-69
2023/04/05 05:38:14;;;;;;;3.90;2.90;;;;;;;17.67;39.80;99760.73;108102;1254;61282;-68
2023/04/05 05:40:42;;;;;;;4.00;2.90;;;;;;;17.74;39.58;99763.77;108335;1255;61402;-67
2023/04/05 05:43:11;;;;;;;3.70;2.90;;;;;;;17.73;39.62;99764.02;108119;1254;73689;-68
2023/04/05 05:45:39;;;;;;;5.40;4.00;;;;;;;17.64;39.72;99767.90;108243;1254;70585;-67
2023/04/05 05:48:08;;;;;;;3.80;2.90;;;;;;;17.85;39.36;99767.61;108090;1254;73242;-67
2023/04/05 05:50:38;;;;;;;5.10;3.10;;;;;;;17.77;39.36;99766.89;108225;1256;62398;-68
2023/04/05 05:53:08;;;;;;;3.80;2.70;;;;;;;17.76;39.44;99772.16;108197;1252;61367;-67
2023/04/05 05:55:36;;;;;;;4.90;3.10;;;;;;;17.77;39.50;99771.58;108104;1253;72449;-68
2023/04/05 05:58:06;;;;;;;3.80;2.80;;;;;;;17.85;39.44;99766.00;108075;1254;70805;-67
2023/04/05 06:00:35;;;;;;;3.90;2.70;;;;;;;17.90;39.23;99761.39;108074;1254;73942;-68
2023/04/05 06:03:13;;;;;;;4.80;3.20;;;;;;;17.68;39.62;99765.63;108025;1253;62100;-67
2023/04/05 06:05:50;;;;;;;4.30;2.60;;;;;;;17.54;39.89;99767.17;108153;1254;61248;-66
2023/04/05 06:08:18;;;;;;;4.30;2.50;;;;;;;17.37;40.29;99764.61;108108;1254;73748;-66
2023/04/05 06:10:47;;;;;;;4.40;3.10;;;;;;;17.50;40.16;99765.50;108156;1253;71298;-68
2023/04/05 06:13:16;;;;;;;4.90;3.20;;;;;;;17.61;40.03;99765.40;108133;1257;72366;-66
2023/04/05 06:15:45;;;;;;;5.30;3.70;;;;;;;17.58;40.10;99765.10;108103;1254;62379;-66
2023/04/05 06:18:13;;;;;;;4.30;3.20;;;;;;;17.71;39.98;99761.54;108081;1253;60399;-64
2023/04/05 06:20:43;;;;;;;3.70;3.10;;;;;;;17.79;39.93;99759.30;108135;1254;74740;-69
2023/04/05 06:23:18;;;;;;;10.90;8.30;;;;;;;17.83;39.99;99760.80;108108;1254;70011;-67
2023/04/05 06:25:47;;;;;;;4.50;3.70;;;;;;;17.72;40.18;99757.48;108134;1257;74321;-68
2023/04/05 06:28:16;;;;;;;5.60;3.10;;;;;;;17.77;40.26;99751.84;107974;1253;62044;-67
2023/04/05 06:30:45;;;;;;;4.00;3.00;;;;;;;17.86;40.15;99746.63;108125;1254;60008;-67
2023/04/05 06:33:14;;;;;;;4.40;3.30;;;;;;;17.83;40.37;99740.76;108143;1254;73762;-68
2023/04/05 06:35:42;;;;;;;4.30;3.30;;;;;;;17.80;40.50;99735.96;108114;1254;69479;-69
2023/04/05 06:38:11;;;;;;;4.50;3.10;;;;;;;17.89;40.44;99740.34;108093;1254;72816;-68
2023/04/05 06:40:39;;;;;;;3.60;2.90;;;;;;;17.78;40.78;99742.67;108059;1254;61439;-67
2023/04/05 06:43:11;;;;;;;5.40;3.60;;;;;;;17.81;40.75;99745.52;108142;1252;61789;-67
2023/04/05 06:45:41;;;;;;;4.70;3.30;;;;;;;18.08;40.37;99745.34;108105;1254;74147;-69
2023/04/05 06:48:10;;;;;;;4.10;3.00;;;;;;;18.18;40.32;99742.10;108081;1259;69893;-67
2023/04/05 06:50:39;;;;;;;7.20;3.30;;;;;;;18.36;40.01;99743.77;108141;1254;71991;-67
2023/04/05 06:53:08;;;;;;;3.60;2.90;;;;;;;18.22;40.08;99743.23;108128;1254;60329;-65
2023/04/05 06:55:41;;;;;;;6.30;3.30;;;;;;;18.23;40.01;99739.77;108246;1254;61224;-67
2023/04/05 06:58:09;;;;;;;3.60;3.20;;;;;;;18.23;40.15;99749.00;108116;1254;74027;-67
2023/04/05 07:00:38;;;;;;;4.40;3.10;;;;;;;18.28;40.12;99747.55;108311;1253;70597;-66
2023/04/05 07:03:25;;;;;;;5.10;3.80;;;;;;;18.44;39.94;99745.66;108311;1253;73445;-66
2023/04/05 07:06:01;;;;;;;4.40;3.20;;;;;;;18.52;39.79;99748.05;108340;1253;61821;-67
2023/04/05 07:08:33;;;;;;;4.40;3.20;;;;;;;18.58;39.79;99744.94;108057;1254;61391;-68
2023/04/05 07:11:01;;;;;;;4.90;3.60;;;;;;;18.55;40.04;99750.84;108263;1256;74854;-66
2023/04/05 07:13:31;;;;;;;4.60;3.50;;;;;;;18.44;40.33;99751.88;108268;1254;69472;-67
2023/04/05 07:16:00;;;;;;;5.10;3.80;;;;;;;18.66;39.88;99754.48;108224;1254;72741;-68
2023/04/05 07:18:30;;;;;;;4.60;3.70;;;;;;;18.80;39.49;99751.65;108291;1254;60850;-67
2023/04/05 07:21:00;;;;;;;4.80;3.50;;;;;;;18.69;39.72;99750.88;108163;1252;60436;-66
2023/04/05 07:23:33;;;;;;;6.20;4.20;;;;;;;18.86;39.55;99748.35;108308;1253;74859;-68
2023/04/05 07:26:03;;;;;;;5.80;3.80;;;;;;;18.95;39.37;99743.34;108314;1254;71350;-66
2023/04/05 07:28:32;;;;;;;6.60;4.00;;;;;;;19.17;39.15;99735.97;108350;1253;74278;-67
2023/04/05 07:31:03;;;;;;;5.70;4.30;;;;;;;19.12;39.37;99739.89;108293;1253;60829;-68
2023/04/05 07:33:31;;;;;;;6.80;3.90;;;;;;;19.08;39.46;99742.54;108317;1253;60216;-68
2023/04/05 07:35:59;;;;;;;5.80;4.20;;;;;;;19.14;39.59;99741.20;108248;1254;74835;-68
2023/04/05 07:38:29;;;;;;;5.60;4.20;;;;;;;19.45;39.07;99735.37;108130;1258;69604;-68
2023/04/05 07:40:58;;;;;;;6.60;4.90;;;;;;;19.51;38.94;99732.50;108282;1256;73648;-68
2023/04/05 07:43:26;;;;;;;7.40;4.80;;;;;;;19.60;38.76;99737.36;108306;1254;60319;-68
2023/04/05 07:46:02;;;;;;;9.10;4.70;;;;;;;19.46;38.91;99740.23;108350;1254;61391;-66
2023/04/05 07:48:30;;;;;;;8.40;4.90;;;;;;;19.28;39.41;99734.20;108105;1254;74731;-69
2023/04/05 07:51:06;;;;;;;6.40;4.50;;;;;;;19.47;39.25;99728.05;108314;1254;70349;-67
2023/04/05 07:53:35;;;;;;;8.80;5.20;;;;;;;19.36;39.48;99729.78;108321;1256;73412;-67
2023/04/05 07:56:06;;;;;;;7.50;5.50;;;;;;;19.35;39.67;99727.72;108240;1253;61160;-67
2023/04/05 07:58:34;;;;;;;10.40;6.10;;;;;;;19.35;39.80;99734.15;108265;1253;60386;-68
2023/04/05 08:01:02;;;;;;;9.60;6.50;;;;;;;19.26;39.93;99731.67;108131;1254;72640;-66
2023/04/05 08:03:34;;;;;;;8.80;6.30;;;;;;;19.54;39.69;99729.67;108332;1253;70884;-67
2023/04/05 08:06:13;;;;;;;8.40;6.20;;;;;;;19.60;39.48;99730.89;108279;1254;73523;-66
2023/04/05 08:08:41;;;;;;;7.80;6.10;;;;;;;19.57;39.59;99733.66;108279;1254;60498;-69
2023/04/05 08:11:10;;;;;;;9.60;7.10;;;;;;;19.58;39.53;99734.80;108286;1254;61301;-68
2023/04/05 08:13:42;;;;;;;9.80;5.90;;;;;;;19.54;39.74;99736.96;108198;1254;74577;-67
2023/04/05 08:16:10;;;;;;;9.40;7.10;;;;;;;19.46;40.09;99738.60;108222;1253;71399;-67
2023/04/05 08:18:41;;;;;;;11.40;7.80;;;;;;;19.75;39.84;99737.77;108221;1253;73201;-68
2023/04/05 08:21:09;;;;;;;8.30;6.10;;;;;;;19.93;39.39;99742.16;108238;1253;61481;-67
2023/04/05 08:23:37;;;;;;;10.20;6.60;;;;;;;19.86;39.54;99742.17;108276;1254;60336;-68
2023/04/05 08:26:06;;;;;;;10.00;7.30;;;;;;;19.55;40.09;99747.88;108063;1254;74344;-69
2023/04/05 08:28:35;;;;;;;9.70;7.10;;;;;;;19.50;40.29;99748.96;108060;1254;70423;-68
2023/04/05 08:31:04;;;;;;;9.20;7.20;;;;;;;19.67;40.08;99747.97;108225;1253;73689;-69
2023/04/05 08:33:33;;;;;;;8.80;6.10;;;;;;;19.55;40.34;99750.73;108012;1254;61449;-68
2023/04/05 08:36:08;;;;;;;10.20;7.10;;;;;;;19.66;40.09;99751.48;108087;1253;61359;-68
2023/04/05 08:38:37;;;;;;;12.30;8.10;;;;;;;19.75;40.02;99750.05;108131;1254;74117;-66
2023/04/05 08:41:17;;;;;;;13.60;9.10;;;;;;;19.81;39.90;99755.06;108281;1253;72100;-68
2023/04/05 08:43:46;;;;;;;16.60;10.70;;;;;;;19.67;40.14;99752.98;108334;1253;71696;-68
2023/04/05 08:46:15;;;;;;;18.90;12.00;;;;;;;19.55;40.23;99754.14;108338;1253;60593;-68
2023/04/05 08:48:44;;;;;;;14.10;8.80;;;;;;;19.57;40.01;99751.30;108327;1253;61457;-68
2023/04/05 08:51:17;;;;;;;13.60;8.60;;;;;;;19.60;40.07;99749.60;108095;1254;74797;-69
2023/04/05 08:53:46;;;;;;;12.10;7.60;;;;;;;19.48;40.28;99750.91;108137;1253;71145;-67
2023/04/05 08:56:15;;;;;;;13.80;7.70;;;;;;;19.48;40.25;99756.63;108171;1253;73824;-68
2023/04/05 08:58:48;;;;;;;11.90;8.50;;;;;;;19.54;40.17;99754.88;107901;1256;61601;-68
2023/04/05 09:01:16;;;;;;;11.70;7.90;;;;;;;19.31;40.54;99758.32;107978;1255;60364;-68
2023/04/05 09:03:47;;;;;;;11.80;7.00;;;;;;;19.32;40.56;99755.56;108031;1256;72389;-66
2023/04/05 09:06:15;;;;;;;14.00;8.60;;;;;;;19.38;40.50;99751.71;108050;1256;71246;-67
2023/04/05 09:08:43;;;;;;;10.40;7.60;;;;;;;19.41;40.39;99749.36;107956;1256;70714;-65
2023/04/05 09:11:11;;;;;;;12.50;7.90;;;;;;;19.44;40.14;99749.30;108055;1255;60464;-67
2023/04/05 09:13:39;;;;;;;11.50;7.30;;;;;;;19.54;40.10;99750.59;107989;1258;61551;-68
2023/04/05 09:16:08;;;;;;;13.10;8.30;;;;;;;19.90;39.53;99750.29;108008;1257;72850;-67
2023/04/05 09:18:39;;;;;;;10.70;7.70;;;;;;;19.91;39.58;99745.71;108013;1258;71149;-68
2023/04/05 09:21:11;;;;;;;13.00;8.50;;;;;;;20.01;39.48;99741.67;108014;1255;73348;-68
2023/04/05 09:23:50;;;;;;;13.60;8.60;;;;;;;20.15;39.35;99739.77;107984;1255;61910;-68
2023/04/05 09:26:23;;;;;;;23.20;14.20;;;;;;;20.24;39.19;99736.55;107985;1256;60445;-69
2023/04/05 09:28:56;;;;;;;27.20;17.30;;;;;;;20.13;39.68;99733.90;107988;1258;75101;-68
2023/04/05 09:31:29;;;;;;;19.00;12.50;;;;;;;20.15;39.57;99731.77;108072;1256;71651;-66
2023/04/05 09:34:00;;;;;;;15.90;10.70;;;;;;;20.13;39.70;99727.14;107967;1255;73161;-68
2023/04/05 09:36:32;;;;;;;14.70;9.20;;;;;;;20.15;39.68;99727.13;107995;1256;61711;-67
2023/04/05 09:39:05;;;;;;;13.20;9.30;;;;;;;20.33;39.50;99729.05;108023;1256;61480;-68
2023/04/05 09:41:34;;;;;;;15.60;10.40;;;;;;;20.40;39.48;99729.40;107989;1255;75012;-68
2023/04/05 09:44:02;;;;;;;16.90;9.80;;;;;;;20.12;39.77;99735.92;108030;1256;71339;-68
2023/04/05 09:46:33;;;;;;;16.70;11.20;;;;;;;19.78;40.51;99736.27;108003;1258;73089;-69
2023/04/05 09:49:02;;;;;;;13.40;9.00;;;;;;;20.06;40.29;99737.15;108015;1255;61205;-67
2023/04/05 09:51:38;;;;;;;14.30;9.50;;;;;;;20.03;40.31;99732.23;108014;1256;61073;-68
2023/04/05 09:54:09;;;;;;;15.10;9.70;;;;;;;20.12;40.37;99728.68;108005;1254;73040;-67
2023/04/05 09:56:39;;;;;;;13.20;9.20;;;;;;;20.26;40.32;99723.95;108030;1253;71000;-68
2023/04/05 09:59:09;;;;;;;15.30;10.30;;;;;;;20.34;40.19;99722.41;108276;1253;73044;-68
2023/04/05 10:01:42;;;;;;;15.10;9.00;;;;;;;20.30;40.56;99720.86;108312;1252;61473;-68
2023/04/05 10:04:11;;;;;;;16.90;10.70;;;;;;;20.47;40.46;99718.75;108279;1253;61319;-68
2023/04/05 10:06:42;;;;;;;17.60;10.30;;;;;;;20.58;40.45;99716.27;108291;1256;74195;-67
2023/04/05 10:09:14;;;;;;;15.00;10.30;;;;;;;20.61;40.73;99718.80;108300;1253;70627;-68
2023/04/05 10:11:43;;;;;;;15.20;10.90;;;;;;;20.87;40.56;99711.80;108145;1259;72020;-66
2023/04/05 10:14:12;;;;;;;20.90;11.10;;;;;;;21.46;39.87;99712.74;108078;1253;62452;-67
2023/04/05 10:16:52;;;;;;;19.40;11.80;;;;;;;22.00;39.15;99711.09;108299;1252;62197;-68
2023/04/05 10:19:27;;;;;;;18.80;12.60;;;;;;;21.95;39.10;99709.19;108342;1256;74165;-66
2023/04/05 10:21:56;;;;;;;14.80;10.90;;;;;;;21.87;39.38;99707.44;108274;1254;69382;-67
2023/04/05 10:24:39;;;;;;;17.80;11.00;;;;;;;21.75;39.59;99708.02;108236;1253;73991;-64
2023/04/05 10:27:12;;;;;;;14.90;10.50;;;;;;;21.90;39.44;99713.58;108221;1256;63193;-65
2023/04/05 10:29:55;;;;;;;17.50;11.60;;;;;;;22.06;39.11;99715.02;108247;1253;60372;-68
2023/04/05 10:32:30;;;;;;;15.50;10.70;;;;;;;21.82;39.32;99717.16;108301;1253;75060;-66
2023/04/05 10:35:15;;;;;;;16.70;10.90;;;;;;;22.08;38.90;99713.71;108049;1253;71874;-67
2023/04/05 10:38:01;;;;;;;13.10;8.70;;;;;;;22.10;38.85;99710.02;108267;1252;73756;-68
2023/04/05 10:40:31;;;;;;;15.10;10.40;;;;;;;22.20;38.54;99707.60;108025;1253;63426;-68
2023/04/05 10:42:59;;;;;;;18.90;11.30;;;;;;;22.25;38.35;99714.02;108297;1252;60440;-67
2023/04/05 10:45:28;;;;;;;15.50;10.20;;;;;;;22.33;38.52;99711.85;108069;1254;75036;-68
2023/04/05 10:48:05;;;;;;;18.20;11.10;;;;;;;22.21;38.56;99712.42;108293;1252;71630;-67
2023/04/05 10:50:35;;;;;;;16.50;10.40;;;;;;;22.34;38.53;99713.53;108241;1253;72925;-69
2023/04/05 10:53:04;;;;;;;14.00;10.50;;;;;;;22.45;38.63;99712.48;108243;1253;61991;-68
2023/04/05 10:55:33;;;;;;;13.60;9.60;;;;;;;22.41;38.69;99708.08;108101;1253;60330;-67
2023/04/05 10:58:01;;;;;;;17.10;11.30;;;;;;;22.41;38.80;99709.64;107970;1254;74044;-68
2023/04/05 11:00:31;;;;;;;14.20;10.10;;;;;;;22.38;39.09;99710.27;107813;1254;71245;-68
2023/04/05 11:03:00;;;;;;;13.50;9.00;;;;;;;22.60;38.90;99706.49;108015;1258;72891;-68
2023/04/05 11:05:33;;;;;;;14.60;9.90;;;;;;;22.57;39.10;99708.20;107991;1257;62033;-67
2023/04/05 11:08:03;;;;;;;12.20;9.40;;;;;;;22.65;39.09;99709.80;107972;1253;60431;-67
2023/04/05 11:10:36;;;;;;;12.70;9.10;;;;;;;22.82;38.64;99712.90;107973;1254;73825;-68
2023/04/05 11:13:07;;;;;;;16.60;11.60;;;;;;;23.06;38.30;99707.47;108082;1254;70462;-69
2023/04/05 11:15:36;;;;;;;15.90;9.20;;;;;;;22.87;38.67;99710.16;107993;1254;73149;-67
2023/04/05 11:18:14;;;;;;;12.50;9.10;;;;;;;23.17;37.95;99707.52;108002;1254;62939;-67
2023/04/05 11:21:02;;;;;;;11.50;8.40;;;;;;;23.08;37.88;99710.91;108067;1254;60510;-69
2023/04/05 11:24:08;;;;;;;21.50;14.10;;;;;;;23.04;37.86;99707.80;107991;1254;75003;-69
2023/04/05 11:26:43;;;;;;;23.10;15.10;;;;;;;23.53;37.30;99706.82;108067;1253;71665;-69
2023/04/05 11:29:11;;;;;;;28.80;16.20;;;;;;;23.56;37.46;99706.20;108084;1254;73613;-68
2023/04/05 11:31:59;;;;;;;21.30;15.10;;;;;;;23.62;37.28;99704.37;108070;1254;62762;-69
2023/04/05 11:34:27;;;;;;;13.80;10.10;;;;;;;24.06;36.81;99702.38;108221;1254;60371;-69
2023/04/05 11:36:55;;;;;;;13.50;10.30;;;;;;;24.23;36.34;99700.55;108113;1254;74713;-68
2023/04/05 11:39:24;;;;;;;14.60;10.30;;;;;;;24.28;35.80;99693.19;108152;1257;71657;-69
2023/04/05 11:42:05;;;;;;;11.40;8.90;;;;;;;24.02;36.28;99691.98;108104;1257;73739;-69
2023/04/05 11:44:46;;;;;;;14.80;10.30;;;;;;;23.63;36.75;99697.14;108065;1254;62662;-69
2023/04/05 11:47:16;;;;;;;14.10;9.90;;;;;;;23.89;36.41;99691.89;108070;1254;60209;-68